createdAt,value
2018-08-20T00:00:17.968Z,16.96
2018-08-20T00:01:17.946Z,16.98
2018-08-20T00:02:17.951Z,17.00
2018-08-20T00:03:17.944Z,17.04
2018-08-20T00:04:17.916Z,16.88
2018-08-20T00:05:17.897Z,16.94
2018-08-20T00:06:17.894Z,16.98
2018-08-20T00:07:17.897Z,16.93
2018-08-20T00:08:17.869Z,16.86
2018-08-20T00:09:17.863Z,16.98
2018-08-20T00:10:17.886Z,16.96
2018-08-20T00:11:17.838Z,17.00
2018-08-20T00:12:17.833Z,16.91
2018-08-20T00:13:17.816Z,16.96
2018-08-20T00:14:17.812Z,16.93
2018-08-20T00:15:17.792Z,16.91
2018-08-20T00:16:17.802Z,16.94
2018-08-20T00:17:17.796Z,17.00
2018-08-20T00:18:17.759Z,16.91
2018-08-20T00:19:17.747Z,16.89
2018-08-20T00:20:17.736Z,16.94
2018-08-20T00:21:17.725Z,16.86
2018-08-20T00:22:17.771Z,16.83
2018-08-20T00:23:17.702Z,16.96
2018-08-20T00:24:17.683Z,16.94
2018-08-20T00:25:17.679Z,16.93
2018-08-20T00:26:17.667Z,16.94
2018-08-20T00:27:17.653Z,16.85
2018-08-20T00:28:17.706Z,16.88
2018-08-20T00:29:17.634Z,16.98
2018-08-20T00:30:17.624Z,16.94
2018-08-20T00:31:17.611Z,16.96
2018-08-20T00:32:17.604Z,16.89
2018-08-20T00:33:17.596Z,16.88
2018-08-20T00:34:17.613Z,16.83
2018-08-20T00:35:17.560Z,16.88
2018-08-20T00:36:17.557Z,16.97
2018-08-20T00:37:17.542Z,16.88
2018-08-20T00:38:17.536Z,16.82
2018-08-20T00:39:17.549Z,16.96
2018-08-20T00:40:17.586Z,16.86
2018-08-20T00:41:17.496Z,16.82
2018-08-20T00:42:17.488Z,16.89
2018-08-20T00:43:17.479Z,16.78
2018-08-20T00:44:17.483Z,16.82
2018-08-20T00:45:19.323Z,16.86
2018-08-20T00:46:17.453Z,16.85
2018-08-20T00:47:17.429Z,16.79
2018-08-20T00:48:17.421Z,16.79
2018-08-20T00:49:17.414Z,16.76
2018-08-20T00:50:17.434Z,16.82
2018-08-20T00:51:17.386Z,16.76
2018-08-20T00:52:17.398Z,16.76
2018-08-20T00:53:17.359Z,16.75
2018-08-20T00:54:17.352Z,16.78
2018-08-20T00:55:17.351Z,16.75
2018-08-20T00:56:17.344Z,16.73
2018-08-20T00:57:17.322Z,16.63
2018-08-20T00:58:17.319Z,16.73
2018-08-20T00:59:17.296Z,16.63
2018-08-20T01:00:17.289Z,16.73
2018-08-20T01:01:17.294Z,16.71
2018-08-20T01:02:17.263Z,16.63
2018-08-20T01:03:17.251Z,16.66
2018-08-20T01:04:17.250Z,16.64
2018-08-20T01:05:17.229Z,16.63
2018-08-20T01:06:17.218Z,16.75
2018-08-20T01:07:17.219Z,16.63
2018-08-20T01:08:17.196Z,16.58
2018-08-20T01:09:17.179Z,16.64
2018-08-20T01:10:17.189Z,16.58
2018-08-20T01:11:17.160Z,16.58
2018-08-20T01:12:17.161Z,16.60
2018-08-20T01:13:17.132Z,16.58
2018-08-20T01:14:17.122Z,16.61
2018-08-20T01:15:17.136Z,16.49
2018-08-20T01:16:17.122Z,16.48
2018-08-20T01:17:17.089Z,16.48
2018-08-20T01:18:17.084Z,16.46
2018-08-20T01:19:17.072Z,16.45
2018-08-20T01:20:17.102Z,16.38
2018-08-20T01:21:17.050Z,16.38
2018-08-20T01:22:17.055Z,16.38
2018-08-20T01:23:17.026Z,16.35
2018-08-20T01:24:17.021Z,16.28
2018-08-20T01:25:17.008Z,16.30
2018-08-20T01:26:17.004Z,16.30
2018-08-20T01:27:16.977Z,16.28
2018-08-20T01:28:16.990Z,16.39
2018-08-20T01:29:16.959Z,16.28
2018-08-20T01:30:16.973Z,16.33
2018-08-20T01:31:16.964Z,16.33
2018-08-20T01:32:16.925Z,16.24
2018-08-20T01:33:16.916Z,16.27
2018-08-20T01:34:16.942Z,16.24
2018-08-20T01:35:16.896Z,16.25
2018-08-20T01:36:16.879Z,16.23
2018-08-20T01:37:16.881Z,16.28
2018-08-20T01:38:16.854Z,16.30
2018-08-20T01:39:16.845Z,16.23
2018-08-20T01:40:16.858Z,16.14
2018-08-20T01:41:16.825Z,16.11
2018-08-20T01:42:16.873Z,16.07
2018-08-20T01:43:16.798Z,16.09
2018-08-20T01:44:16.791Z,16.07
2018-08-20T01:45:16.782Z,16.05
2018-08-20T01:46:16.802Z,16.11
2018-08-20T01:47:16.755Z,16.05
2018-08-20T01:48:16.756Z,16.07
2018-08-20T01:49:16.727Z,16.01
2018-08-20T01:50:16.718Z,15.97
2018-08-20T01:51:16.714Z,15.94
2018-08-20T01:52:16.732Z,15.89
2018-08-20T01:53:16.708Z,15.97
2018-08-20T01:54:16.685Z,15.89
2018-08-20T01:55:16.668Z,15.90
2018-08-20T01:56:16.651Z,15.83
2018-08-20T01:57:16.644Z,15.89
2018-08-20T01:58:16.652Z,15.76
2018-08-20T01:59:16.639Z,15.82
2018-08-20T02:00:16.610Z,15.74
2018-08-20T02:01:16.595Z,15.75
2018-08-20T02:02:16.590Z,15.75
2018-08-20T02:03:16.577Z,15.74
2018-08-20T02:04:16.613Z,15.76
2018-08-20T02:05:16.550Z,15.69
2018-08-20T02:06:16.539Z,15.72
2018-08-20T02:07:16.530Z,15.68
2018-08-20T02:08:16.523Z,15.75
2018-08-20T02:09:16.516Z,15.60
2018-08-20T02:10:16.539Z,15.60
2018-08-20T02:11:16.485Z,15.62
2018-08-20T02:12:16.477Z,15.62
2018-08-20T02:13:16.461Z,15.65
2018-08-20T02:14:16.454Z,15.53
2018-08-20T02:15:16.462Z,15.64
2018-08-20T02:16:16.451Z,15.56
2018-08-20T02:17:16.412Z,15.56
2018-08-20T02:18:16.407Z,15.59
2018-08-20T02:19:16.391Z,15.46
2018-08-20T02:20:16.388Z,15.47
2018-08-20T02:21:16.410Z,15.49
2018-08-20T02:22:16.398Z,15.46
2018-08-20T02:23:16.359Z,15.47
2018-08-20T02:24:16.340Z,15.44
2018-08-20T02:25:16.338Z,15.41
2018-08-20T02:26:16.326Z,15.41
2018-08-20T02:27:16.318Z,15.36
2018-08-20T02:28:16.313Z,15.34
2018-08-20T02:29:16.285Z,15.35
2018-08-20T02:30:16.271Z,15.29
2018-08-20T02:31:16.260Z,15.28
2018-08-20T02:32:16.271Z,15.27
2018-08-20T02:33:16.246Z,15.29
2018-08-20T02:34:16.258Z,15.28
2018-08-20T02:35:16.207Z,15.31
2018-08-20T02:36:16.210Z,15.34
2018-08-20T02:37:16.213Z,15.28
2018-08-20T02:38:16.188Z,15.23
2018-08-20T02:39:16.180Z,15.20
2018-08-20T02:40:16.185Z,15.14
2018-08-20T02:41:16.150Z,15.19
2018-08-20T02:42:16.150Z,15.19
2018-08-20T02:43:16.128Z,15.17
2018-08-20T02:44:16.119Z,15.17
2018-08-20T02:45:16.107Z,15.10
2018-08-20T02:46:16.128Z,15.17
2018-08-20T02:47:16.095Z,15.19
2018-08-20T02:48:16.077Z,15.14
2018-08-20T02:49:16.067Z,15.10
2018-08-20T02:50:16.067Z,15.10
2018-08-20T02:51:16.033Z,15.14
2018-08-20T02:52:16.066Z,15.16
2018-08-20T02:53:16.059Z,15.11
2018-08-20T02:54:16.001Z,15.09
2018-08-20T02:55:16.000Z,15.01
2018-08-20T02:56:15.986Z,15.03
2018-08-20T02:57:15.983Z,14.98
2018-08-20T02:58:15.958Z,14.99
2018-08-20T02:59:15.977Z,15.01
2018-08-20T03:00:15.932Z,15.03
2018-08-20T03:01:15.925Z,14.95
2018-08-20T03:02:15.922Z,14.92
2018-08-20T03:03:15.913Z,14.94
2018-08-20T03:04:15.891Z,14.92
2018-08-20T03:05:15.904Z,14.92
2018-08-20T03:06:15.869Z,14.95
2018-08-20T03:07:15.867Z,14.91
2018-08-20T03:08:15.846Z,14.95
2018-08-20T03:09:15.835Z,14.86
2018-08-20T03:10:15.818Z,14.77
2018-08-20T03:11:15.839Z,14.80
2018-08-20T03:12:15.822Z,14.83
2018-08-20T03:13:15.796Z,14.78
2018-08-20T03:14:15.778Z,14.73
2018-08-20T03:15:15.770Z,14.73
2018-08-20T03:16:15.767Z,14.78
2018-08-20T03:17:15.766Z,14.78
2018-08-20T03:18:15.772Z,14.72
2018-08-20T03:19:15.723Z,14.68
2018-08-20T03:20:15.718Z,14.72
2018-08-20T03:21:15.703Z,14.83
2018-08-20T03:22:15.694Z,14.68
2018-08-20T03:23:15.700Z,14.72
2018-08-20T03:24:15.684Z,14.75
2018-08-20T03:25:15.657Z,14.65
2018-08-20T03:26:15.635Z,14.64
2018-08-20T03:27:15.633Z,14.64
2018-08-20T03:28:15.619Z,14.65
2018-08-20T03:29:15.655Z,14.58
2018-08-20T03:30:15.601Z,14.52
2018-08-20T03:31:15.594Z,14.60
2018-08-20T03:32:15.575Z,14.60
2018-08-20T03:33:15.565Z,14.52
2018-08-20T03:34:15.568Z,14.54
2018-08-20T03:35:15.579Z,14.55
2018-08-20T03:36:15.533Z,14.54
2018-08-20T03:37:15.528Z,14.57
2018-08-20T03:38:15.513Z,14.52
2018-08-20T03:39:15.510Z,14.46
2018-08-20T03:40:15.487Z,14.42
2018-08-20T03:41:15.488Z,14.43
2018-08-20T03:42:15.461Z,14.37
2018-08-20T03:43:15.452Z,14.43
2018-08-20T03:44:15.464Z,14.42
2018-08-20T03:45:15.433Z,14.36
2018-08-20T03:46:15.424Z,14.42
2018-08-20T03:47:15.449Z,14.37
2018-08-20T03:48:15.396Z,14.25
2018-08-20T03:49:15.387Z,14.24
2018-08-20T03:50:15.403Z,14.35
2018-08-20T03:51:15.362Z,14.35
2018-08-20T03:52:15.353Z,14.25
2018-08-20T03:53:15.364Z,14.39
2018-08-20T03:54:15.321Z,14.24
2018-08-20T03:55:16.297Z,14.18
2018-08-20T03:56:15.344Z,14.22
2018-08-20T03:57:15.297Z,14.20
2018-08-20T03:58:15.280Z,14.22
2018-08-20T03:59:15.287Z,14.27
2018-08-20T04:00:15.268Z,14.22
2018-08-20T04:01:15.255Z,14.18
2018-08-20T04:02:15.259Z,14.24
2018-08-20T04:03:15.233Z,14.25
2018-08-20T04:04:15.225Z,14.21
2018-08-20T04:05:15.232Z,14.20
2018-08-20T04:06:15.199Z,14.18
2018-08-20T04:07:15.203Z,14.24
2018-08-20T04:08:15.171Z,14.18
2018-08-20T04:09:15.161Z,14.24
2018-08-20T04:10:15.146Z,14.21
2018-08-20T04:11:15.158Z,14.18
2018-08-20T04:12:15.164Z,14.22
2018-08-20T04:13:15.116Z,14.18
2018-08-20T04:14:15.107Z,14.17
2018-08-20T04:15:15.094Z,14.17
2018-08-20T04:16:15.089Z,14.12
2018-08-20T04:17:15.093Z,14.17
2018-08-20T04:18:15.096Z,14.20
2018-08-20T04:19:15.057Z,14.22
2018-08-20T04:20:15.047Z,14.22
2018-08-20T04:21:15.030Z,14.20
2018-08-20T04:22:15.022Z,14.20
2018-08-20T04:23:15.033Z,14.25
2018-08-20T04:24:15.228Z,14.28
2018-08-20T04:25:15.002Z,14.18
2018-08-20T04:26:14.976Z,14.22
2018-08-20T04:27:14.969Z,14.29
2018-08-20T04:28:14.958Z,14.32
2018-08-20T04:29:14.968Z,14.25
2018-08-20T04:30:14.954Z,14.28
2018-08-20T04:31:14.913Z,14.25
2018-08-20T04:32:14.910Z,14.27
2018-08-20T04:33:14.901Z,14.37
2018-08-20T04:34:14.883Z,14.27
2018-08-20T04:35:14.900Z,14.29
2018-08-20T04:36:14.883Z,14.27
2018-08-20T04:37:14.854Z,14.29
2018-08-20T04:38:14.843Z,14.32
2018-08-20T04:39:14.828Z,14.29
2018-08-20T04:40:14.841Z,14.37
2018-08-20T04:41:14.812Z,14.40
2018-08-20T04:42:14.902Z,14.37
2018-08-20T04:43:14.789Z,14.33
2018-08-20T04:44:14.778Z,14.35
2018-08-20T04:45:14.765Z,14.40
2018-08-20T04:46:14.775Z,14.37
2018-08-20T04:47:14.739Z,14.42
2018-08-20T04:48:14.759Z,14.39
2018-08-20T04:49:14.722Z,14.39
2018-08-20T04:50:14.838Z,14.43
2018-08-20T04:51:14.956Z,14.42
2018-08-20T04:52:14.707Z,14.39
2018-08-20T04:53:14.673Z,14.37
2018-08-20T04:54:14.688Z,14.40
2018-08-20T04:55:14.651Z,14.52
2018-08-20T04:56:14.634Z,14.55
2018-08-20T04:57:14.643Z,14.50
2018-08-20T04:58:14.615Z,14.57
2018-08-20T04:59:14.610Z,14.57
2018-08-20T05:00:14.617Z,14.54
2018-08-20T05:01:14.584Z,14.55
2018-08-20T05:02:14.587Z,14.64
2018-08-20T05:03:14.560Z,14.60
2018-08-20T05:04:14.547Z,14.62
2018-08-20T05:05:14.544Z,14.65
2018-08-20T05:06:14.556Z,14.69
2018-08-20T05:07:14.529Z,14.68
2018-08-20T05:08:14.526Z,14.68
2018-08-20T05:09:14.491Z,14.80
2018-08-20T05:10:14.484Z,14.80
2018-08-20T05:11:14.470Z,14.81
2018-08-20T05:12:14.474Z,14.72
2018-08-20T05:13:14.452Z,14.75
2018-08-20T05:14:14.451Z,14.86
2018-08-20T05:15:14.437Z,14.84
2018-08-20T05:16:14.416Z,14.89
2018-08-20T05:17:14.411Z,14.91
2018-08-20T05:18:14.424Z,14.96
2018-08-20T05:19:14.393Z,14.98
2018-08-20T05:20:14.372Z,14.92
2018-08-20T05:21:14.367Z,14.98
2018-08-20T05:22:14.346Z,15.11
2018-08-20T05:23:14.341Z,15.10
2018-08-20T05:24:14.379Z,15.13
2018-08-20T05:25:14.308Z,15.17
2018-08-20T05:26:14.319Z,15.19
2018-08-20T05:27:14.294Z,15.21
2018-08-20T05:28:14.275Z,15.21
2018-08-20T05:29:14.324Z,15.28
2018-08-20T05:30:14.294Z,15.31
2018-08-20T05:31:14.250Z,15.36
2018-08-20T05:32:14.238Z,15.39
2018-08-20T05:33:14.222Z,15.38
2018-08-20T05:34:14.207Z,15.47
2018-08-20T05:35:14.228Z,15.44
2018-08-20T05:36:14.205Z,15.62
2018-08-20T05:37:14.188Z,15.57
2018-08-20T05:38:14.168Z,15.59
2018-08-20T05:39:14.160Z,15.68
2018-08-20T05:40:14.140Z,15.62
2018-08-20T05:41:14.139Z,15.71
2018-08-20T05:42:14.134Z,15.67
2018-08-20T05:43:14.107Z,15.83
2018-08-20T05:44:14.098Z,15.87
2018-08-20T05:45:14.093Z,15.87
2018-08-20T05:46:14.105Z,16.07
2018-08-20T05:47:14.070Z,16.02
2018-08-20T05:48:14.073Z,16.08
2018-08-20T05:49:14.043Z,16.08
2018-08-20T05:50:14.030Z,16.14
2018-08-20T05:51:14.019Z,16.07
2018-08-20T05:52:14.026Z,16.15
2018-08-20T05:53:13.999Z,16.27
2018-08-20T05:54:14.007Z,16.30
2018-08-20T05:55:13.980Z,16.30
2018-08-20T05:56:13.967Z,16.33
2018-08-20T05:57:13.984Z,16.48
2018-08-20T05:58:13.941Z,16.39
2018-08-20T05:59:14.012Z,16.50
2018-08-20T06:00:13.930Z,16.67
2018-08-20T06:01:13.911Z,16.73
2018-08-20T06:02:13.895Z,16.75
2018-08-20T06:03:13.899Z,16.79
2018-08-20T06:04:13.878Z,16.88
2018-08-20T06:05:13.864Z,16.93
2018-08-20T06:06:13.872Z,17.07
2018-08-20T06:07:13.895Z,17.06
2018-08-20T06:08:13.880Z,17.19
2018-08-20T06:09:13.818Z,17.16
2018-08-20T06:10:13.810Z,17.25
2018-08-20T06:11:13.802Z,17.23
2018-08-20T06:12:13.806Z,17.41
2018-08-20T06:13:13.772Z,17.44
2018-08-20T06:14:13.788Z,17.48
2018-08-20T06:15:13.779Z,17.51
2018-08-20T06:16:13.736Z,17.63
2018-08-20T06:17:13.734Z,17.81
2018-08-20T06:18:13.722Z,18.02
2018-08-20T06:19:13.710Z,18.15
2018-08-20T06:20:13.706Z,18.17
2018-08-20T06:21:13.686Z,18.47
2018-08-20T06:22:13.683Z,18.99
2018-08-20T06:23:13.658Z,19.80
2018-08-20T06:24:13.670Z,20.80
2018-08-20T06:25:13.673Z,21.72
2018-08-20T06:26:13.631Z,22.46
2018-08-20T06:27:13.617Z,23.12
2018-08-20T06:28:13.607Z,23.72
2018-08-20T06:29:13.592Z,24.09
2018-08-20T06:30:13.597Z,24.55
2018-08-20T06:31:13.593Z,25.05
2018-08-20T06:32:13.556Z,25.55
2018-08-20T06:33:13.550Z,25.99
2018-08-20T06:34:13.538Z,26.23
2018-08-20T06:35:13.528Z,26.51
2018-08-20T06:36:13.537Z,26.92
2018-08-20T06:37:13.922Z,27.09
2018-08-20T06:38:13.503Z,27.31
2018-08-20T06:39:13.481Z,27.31
2018-08-20T06:40:13.478Z,27.43
2018-08-20T06:41:13.461Z,27.54
2018-08-20T06:42:13.476Z,27.60
2018-08-20T06:43:13.435Z,27.82
2018-08-20T06:44:13.427Z,27.99
2018-08-20T06:45:13.418Z,28.09
2018-08-20T06:46:13.415Z,27.96
2018-08-20T06:47:13.436Z,28.03
2018-08-20T06:48:13.403Z,28.06
2018-08-20T06:49:13.383Z,28.19
2018-08-20T06:50:13.367Z,28.29
2018-08-20T06:51:13.352Z,28.33
2018-08-20T06:52:13.346Z,28.33
2018-08-20T06:53:13.363Z,28.55
2018-08-20T06:54:13.336Z,28.68
2018-08-20T06:55:13.313Z,28.54
2018-08-20T06:56:13.304Z,28.56
2018-08-20T06:57:13.297Z,28.62
2018-08-20T06:58:13.283Z,28.70
2018-08-20T06:59:13.288Z,28.64
2018-08-20T07:00:13.264Z,28.74
2018-08-20T07:01:13.273Z,28.93
2018-08-20T07:02:13.255Z,28.92
2018-08-20T07:03:13.236Z,28.78
2018-08-20T07:04:13.230Z,28.66
2018-08-20T07:05:13.214Z,28.64
2018-08-20T07:06:13.214Z,28.58
2018-08-20T07:07:13.184Z,28.62
2018-08-20T07:08:13.174Z,28.52
2018-08-20T07:09:13.184Z,28.52
2018-08-20T07:10:13.159Z,28.48
2018-08-20T07:11:13.139Z,28.61
2018-08-20T07:12:13.129Z,28.33
2018-08-20T07:13:13.120Z,28.34
2018-08-20T07:14:13.114Z,28.51
2018-08-20T07:15:13.136Z,28.51
2018-08-20T07:16:13.084Z,28.37
2018-08-20T07:17:13.069Z,28.41
2018-08-20T07:18:13.066Z,28.21
2018-08-20T07:19:13.052Z,28.00
2018-08-20T07:20:13.045Z,27.84
2018-08-20T07:21:13.088Z,27.69
2018-08-20T07:22:13.018Z,27.63
2018-08-20T07:23:13.013Z,27.66
2018-08-20T07:24:12.999Z,27.39
2018-08-20T07:25:12.993Z,27.18
2018-08-20T07:26:12.976Z,27.10
2018-08-20T07:27:12.997Z,27.10
2018-08-20T07:28:12.955Z,27.00
2018-08-20T07:29:12.964Z,27.06
2018-08-20T07:30:12.939Z,27.17
2018-08-20T07:31:12.926Z,27.28
2018-08-20T07:32:12.932Z,27.37
2018-08-20T07:33:12.932Z,27.36
2018-08-20T07:34:12.887Z,27.37
2018-08-20T07:35:12.889Z,27.39
2018-08-20T07:36:12.869Z,27.34
2018-08-20T07:37:12.887Z,27.29
2018-08-20T07:38:12.844Z,27.10
2018-08-20T07:39:12.865Z,27.18
2018-08-20T07:40:12.829Z,27.04
2018-08-20T07:41:12.813Z,27.10
2018-08-20T07:42:12.809Z,27.09
2018-08-20T07:43:12.834Z,26.65
2018-08-20T07:44:12.787Z,26.40
2018-08-20T07:45:12.811Z,26.32
2018-08-20T07:46:12.768Z,26.15
2018-08-20T07:47:12.749Z,26.23
2018-08-20T07:48:12.752Z,26.26
2018-08-20T07:49:12.741Z,26.35
2018-08-20T07:50:12.724Z,26.37
2018-08-20T07:51:12.738Z,26.35
2018-08-20T07:52:12.700Z,26.26
2018-08-20T07:53:12.688Z,26.30
2018-08-20T07:54:12.683Z,26.18
2018-08-20T07:55:12.672Z,25.97
2018-08-20T07:56:12.661Z,25.75
2018-08-20T07:57:12.661Z,25.69
2018-08-20T07:58:12.637Z,25.64
2018-08-20T07:59:12.647Z,25.60
2018-08-20T08:00:12.612Z,25.54
2018-08-20T08:01:12.613Z,25.54
2018-08-20T08:02:12.594Z,25.65
2018-08-20T08:03:12.615Z,25.80
2018-08-20T08:04:12.570Z,25.94
2018-08-20T08:05:12.762Z,26.05
2018-08-20T08:06:12.553Z,26.13
2018-08-20T08:07:12.546Z,26.26
2018-08-20T08:08:12.527Z,26.28
2018-08-20T08:09:12.546Z,26.30
2018-08-20T08:10:12.509Z,26.44
2018-08-20T08:11:12.500Z,26.35
2018-08-20T08:12:12.478Z,26.37
2018-08-20T08:13:12.469Z,26.39
2018-08-20T08:14:12.510Z,26.43
2018-08-20T08:15:12.483Z,26.45
2018-08-20T08:16:12.473Z,26.50
2018-08-20T08:17:12.430Z,26.43
2018-08-20T08:18:12.470Z,26.45
2018-08-20T08:19:12.401Z,26.45
2018-08-20T08:20:12.385Z,26.48
2018-08-20T08:21:12.392Z,26.13
2018-08-20T08:22:12.398Z,26.07
2018-08-20T08:23:12.360Z,25.92
2018-08-20T08:24:12.346Z,25.97
2018-08-20T08:25:12.362Z,25.94
2018-08-20T08:26:12.323Z,25.94
2018-08-20T08:27:12.317Z,25.94
2018-08-20T08:28:12.300Z,25.82
2018-08-20T08:29:12.288Z,25.72
2018-08-20T08:30:12.290Z,25.45
2018-08-20T08:31:12.260Z,25.28
2018-08-20T08:32:12.292Z,25.28
2018-08-20T08:33:12.237Z,25.15
2018-08-20T08:34:12.234Z,25.21
2018-08-20T08:35:12.225Z,25.10
2018-08-20T08:36:12.224Z,25.05
2018-08-20T08:37:12.201Z,24.84
2018-08-20T08:38:12.295Z,24.64
2018-08-20T08:39:12.183Z,24.62
2018-08-20T08:40:12.165Z,24.65
2018-08-20T08:41:12.165Z,24.69
2018-08-20T08:42:12.145Z,24.93
2018-08-20T08:43:12.158Z,24.83
2018-08-20T08:44:12.137Z,24.58
2018-08-20T08:45:12.109Z,24.73
2018-08-20T08:46:12.103Z,24.81
2018-08-20T08:47:12.090Z,25.03
2018-08-20T08:48:12.082Z,25.20
2018-08-20T08:49:12.132Z,25.18
2018-08-20T08:50:12.064Z,25.05
2018-08-20T08:51:12.047Z,25.06
2018-08-20T08:52:12.037Z,25.02
2018-08-20T08:53:12.024Z,25.03
2018-08-20T08:54:12.019Z,24.98
2018-08-20T08:55:12.058Z,24.90
2018-08-20T08:56:12.014Z,24.96
2018-08-20T08:57:11.980Z,25.05
2018-08-20T08:58:11.972Z,25.09
2018-08-20T08:59:11.955Z,25.17
2018-08-20T09:00:11.950Z,25.32
2018-08-20T09:01:11.953Z,25.43
2018-08-20T09:02:11.945Z,25.51
2018-08-20T09:03:11.921Z,25.65
2018-08-20T09:04:11.917Z,25.62
2018-08-20T09:05:11.899Z,25.73
2018-08-20T09:06:11.925Z,25.76
2018-08-20T09:07:11.878Z,25.70
2018-08-20T09:08:11.873Z,25.70
2018-08-20T09:09:11.856Z,25.73
2018-08-20T09:10:11.836Z,25.75
2018-08-20T09:11:11.836Z,25.67
2018-08-20T09:12:11.824Z,25.67
2018-08-20T09:13:11.803Z,25.73
2018-08-20T09:14:11.810Z,25.79
2018-08-20T09:15:11.785Z,25.64
2018-08-20T09:16:11.771Z,25.60
2018-08-20T09:17:11.790Z,25.43
2018-08-20T09:18:11.745Z,25.21
2018-08-20T09:19:11.735Z,25.17
2018-08-20T09:20:11.751Z,25.27
2018-08-20T09:21:11.711Z,25.51
2018-08-20T09:22:11.698Z,25.60
2018-08-20T09:23:11.703Z,25.76
2018-08-20T09:24:11.674Z,25.83
2018-08-20T09:25:11.665Z,25.92
2018-08-20T09:26:11.681Z,25.97
2018-08-20T09:27:11.647Z,25.73
2018-08-20T09:28:11.662Z,25.60
2018-08-20T09:29:11.627Z,25.70
2018-08-20T09:30:11.615Z,25.76
2018-08-20T09:31:11.596Z,25.95
2018-08-20T09:32:11.634Z,25.95
2018-08-20T09:33:11.577Z,25.92
2018-08-20T09:34:11.585Z,25.76
2018-08-20T09:35:11.558Z,25.70
2018-08-20T09:36:11.541Z,25.58
2018-08-20T09:37:11.528Z,25.57
2018-08-20T09:38:11.551Z,25.72
2018-08-20T09:39:11.509Z,25.73
2018-08-20T09:40:11.517Z,25.87
2018-08-20T09:41:11.486Z,25.82
2018-08-20T09:42:11.473Z,25.90
2018-08-20T09:43:11.470Z,25.98
2018-08-20T09:44:11.519Z,25.97
2018-08-20T09:45:11.448Z,25.95
2018-08-20T09:46:11.441Z,26.05
2018-08-20T09:47:11.415Z,26.09
2018-08-20T09:48:11.408Z,26.20
2018-08-20T09:49:11.392Z,26.25
2018-08-20T09:50:11.504Z,26.29
2018-08-20T09:51:11.381Z,26.36
2018-08-20T09:52:11.363Z,26.40
2018-08-20T09:53:11.371Z,26.43
2018-08-20T09:54:11.347Z,26.45
2018-08-20T09:55:11.361Z,26.57
2018-08-20T09:56:11.344Z,26.63
2018-08-20T09:57:11.313Z,26.73
2018-08-20T09:58:11.300Z,26.63
2018-08-20T09:59:11.340Z,26.69
2018-08-20T10:00:11.290Z,26.75
2018-08-20T10:01:11.285Z,26.75
2018-08-20T10:02:11.273Z,26.92
2018-08-20T10:03:11.250Z,27.02
2018-08-20T10:04:11.249Z,26.97
2018-08-20T10:05:11.228Z,27.09
2018-08-20T10:06:11.213Z,27.13
2018-08-20T10:07:11.220Z,27.14
2018-08-20T10:08:11.196Z,27.22
2018-08-20T10:09:11.215Z,27.39
2018-08-20T10:10:11.169Z,27.37
2018-08-20T10:11:11.165Z,27.36
2018-08-20T10:12:11.164Z,27.31
2018-08-20T10:13:11.151Z,27.44
2018-08-20T10:14:11.131Z,27.34
2018-08-20T10:15:11.134Z,27.14
2018-08-20T10:16:11.125Z,27.14
2018-08-20T10:17:11.126Z,26.84
2018-08-20T10:18:11.083Z,26.82
2018-08-20T10:19:11.079Z,26.65
2018-08-20T10:20:11.075Z,26.65
2018-08-20T10:21:11.058Z,26.70
2018-08-20T10:22:11.080Z,26.82
2018-08-20T10:23:11.042Z,26.69
2018-08-20T10:24:11.028Z,26.70
2018-08-20T10:25:11.017Z,26.70
2018-08-20T10:26:11.000Z,26.80
2018-08-20T10:27:11.011Z,26.84
2018-08-20T10:28:11.079Z,26.91
2018-08-20T10:29:10.996Z,27.04
2018-08-20T10:30:10.957Z,27.06
2018-08-20T10:31:10.950Z,26.91
2018-08-20T10:32:11.001Z,26.89
2018-08-20T10:33:10.944Z,27.00
2018-08-20T10:34:10.920Z,27.07
2018-08-20T10:35:10.919Z,27.04
2018-08-20T10:36:10.899Z,27.10
2018-08-20T10:37:20.723Z,27.00
2018-08-20T10:38:11.009Z,26.87
2018-08-20T10:39:10.899Z,26.95
2018-08-20T10:40:10.847Z,27.04
2018-08-20T10:41:10.854Z,27.14
2018-08-20T10:42:10.867Z,26.95
2018-08-20T10:43:10.870Z,26.84
2018-08-20T10:44:10.845Z,26.81
2018-08-20T10:45:10.809Z,26.58
2018-08-20T10:46:10.800Z,26.28
2018-08-20T10:47:10.816Z,26.07
2018-08-20T10:48:10.800Z,25.95
2018-08-20T10:49:10.803Z,25.99
2018-08-20T10:50:10.843Z,25.94
2018-08-20T10:51:10.753Z,25.97
2018-08-20T10:52:10.781Z,26.07
2018-08-20T10:53:10.723Z,26.25
2018-08-20T10:54:10.809Z,26.35
2018-08-20T10:55:10.704Z,26.40
2018-08-20T10:56:10.755Z,26.36
2018-08-20T10:57:10.686Z,26.35
2018-08-20T10:58:10.656Z,26.37
2018-08-20T10:59:10.675Z,26.39
2018-08-20T11:00:10.668Z,26.57
2018-08-20T11:01:10.669Z,26.72
2018-08-20T11:02:10.708Z,26.92
2018-08-20T11:03:10.631Z,27.19
2018-08-20T11:04:10.616Z,27.28
2018-08-20T11:05:10.619Z,27.34
2018-08-20T11:06:10.708Z,27.39
2018-08-20T11:07:10.572Z,27.34
2018-08-20T11:08:10.568Z,27.31
2018-08-20T11:09:10.548Z,27.21
2018-08-20T11:10:10.611Z,27.13
2018-08-20T11:11:10.569Z,27.09
2018-08-20T11:12:10.554Z,27.07
2018-08-20T11:13:10.504Z,27.09
2018-08-20T11:14:10.509Z,27.09
2018-08-20T11:15:10.489Z,27.13
2018-08-20T11:16:10.499Z,27.18
2018-08-20T11:17:10.469Z,27.32
2018-08-20T11:18:10.455Z,27.25
2018-08-20T11:19:10.460Z,27.36
2018-08-20T11:20:10.470Z,27.32
2018-08-20T11:21:10.477Z,27.49
2018-08-20T11:22:10.406Z,27.72
2018-08-20T11:23:10.387Z,27.84
2018-08-20T11:24:10.439Z,28.04
2018-08-20T11:25:10.395Z,28.15
2018-08-20T11:26:10.370Z,28.25
2018-08-20T11:27:10.386Z,28.24
2018-08-20T11:28:10.351Z,28.39
2018-08-20T11:29:10.356Z,28.39
2018-08-20T11:30:10.356Z,28.24
2018-08-20T11:31:10.313Z,28.21
2018-08-20T11:32:10.291Z,28.22
2018-08-20T11:33:10.291Z,28.24
2018-08-20T11:34:10.290Z,28.07
2018-08-20T11:35:10.273Z,27.87
2018-08-20T11:36:10.262Z,27.74
2018-08-20T11:37:10.273Z,27.85
2018-08-20T11:38:10.904Z,27.92
2018-08-20T11:39:10.240Z,27.93
2018-08-20T11:40:10.264Z,27.84
2018-08-20T11:41:10.233Z,28.07
2018-08-20T11:42:10.251Z,28.00
2018-08-20T11:43:10.246Z,27.87
2018-08-20T11:44:10.175Z,27.97
2018-08-20T11:45:10.162Z,28.09
2018-08-20T11:46:10.176Z,28.41
2018-08-20T11:47:10.122Z,28.54
2018-08-20T11:48:10.236Z,28.31
2018-08-20T11:49:10.226Z,27.97
2018-08-20T11:50:10.126Z,27.47
2018-08-20T11:51:10.133Z,27.09
2018-08-20T11:52:10.072Z,26.85
2018-08-20T11:53:10.086Z,26.85
2018-08-20T11:54:10.090Z,26.80
2018-08-20T11:55:10.072Z,26.57
2018-08-20T11:56:10.064Z,26.67
2018-08-20T11:57:10.051Z,26.51
2018-08-20T11:58:10.068Z,26.35
2018-08-20T11:59:10.102Z,26.44
2018-08-20T12:00:10.009Z,26.66
2018-08-20T12:01:10.011Z,26.94
2018-08-20T12:02:09.973Z,27.27
2018-08-20T12:03:09.990Z,27.37
2018-08-20T12:04:10.002Z,27.44
2018-08-20T12:05:09.946Z,27.41
2018-08-20T12:06:09.993Z,27.41
2018-08-20T12:07:09.947Z,27.43
2018-08-20T12:08:09.902Z,27.50
2018-08-20T12:09:09.927Z,27.46
2018-08-20T12:10:09.894Z,27.22
2018-08-20T12:11:09.915Z,26.95
2018-08-20T12:12:09.915Z,26.88
2018-08-20T12:13:10.000Z,27.07
2018-08-20T12:14:09.855Z,27.22
2018-08-20T12:15:09.829Z,27.22
2018-08-20T12:16:09.874Z,27.41
2018-08-20T12:17:09.808Z,27.57
2018-08-20T12:18:09.794Z,27.74
2018-08-20T12:19:09.797Z,27.87
2018-08-20T12:20:09.768Z,28.15
2018-08-20T12:21:09.759Z,28.41
2018-08-20T12:22:09.770Z,28.59
2018-08-20T12:23:09.768Z,28.85
2018-08-20T12:24:09.753Z,29.05
2018-08-20T12:25:09.709Z,29.23
2018-08-20T12:26:09.707Z,29.37
2018-08-20T12:27:09.695Z,29.37
2018-08-20T12:28:09.723Z,29.28
2018-08-20T12:29:09.679Z,29.31
2018-08-20T12:30:09.688Z,29.18
2018-08-20T12:31:09.652Z,29.08
2018-08-20T12:32:09.645Z,28.70
2018-08-20T12:33:09.651Z,28.68
2018-08-20T12:34:09.669Z,28.56
2018-08-20T12:35:09.612Z,28.11
2018-08-20T12:36:09.623Z,27.90
2018-08-20T12:37:09.593Z,27.88
2018-08-20T12:38:09.587Z,28.02
2018-08-20T12:39:09.564Z,28.03
2018-08-20T12:40:09.641Z,28.14
2018-08-20T12:41:09.542Z,28.29
2018-08-20T12:42:09.558Z,28.55
2018-08-20T12:43:09.542Z,28.68
2018-08-20T12:44:09.518Z,28.88
2018-08-20T12:45:09.506Z,29.04
2018-08-20T12:46:09.493Z,29.30
2018-08-20T12:47:09.478Z,29.33
2018-08-20T12:48:09.507Z,29.00
2018-08-20T12:49:09.460Z,28.98
2018-08-20T12:50:09.451Z,29.15
2018-08-20T12:51:09.444Z,29.15
2018-08-20T12:52:09.426Z,28.93